Time;durP1;ratioP1;P1;durP2;ratioP2;P2;SDS_P1;SDS_P2;PMS_P1;PMS_P2;Temp;Humidity;BMP_temperature;BMP_pressure;BME280_temperature;BME280_humidity;BME280_pressure;Samples;Min_cycle;Max_cycle;Signal;HPM_P1;HPM_P2
2023/10/04 00:01:04;;;;;;;3.08;1.33;;;;;;;11.30;100.00;102425.19;6282121;22;20020;-85
2023/10/04 00:03:31;;;;;;;2.67;1.67;;;;;;;11.27;100.00;102429.41;6279443;22;20027;-85
2023/10/04 00:05:59;;;;;;;4.32;1.38;;;;;;;11.26;100.00;102427.91;6279940;22;20475;-85
2023/10/04 00:08:25;;;;;;;3.08;1.45;;;;;;;11.25;100.00;102436.31;6278818;22;20019;-86
2023/10/04 00:10:52;;;;;;;1.85;1.48;;;;;;;11.23;100.00;102438.63;6280698;22;20021;-85
2023/10/04 00:13:19;;;;;;;4.82;1.30;;;;;;;11.21;100.00;102438.25;6281802;22;20012;-86
2023/10/04 00:15:46;;;;;;;4.40;2.10;;;;;;;11.18;100.00;102434.53;6280070;22;20067;-85
2023/10/04 00:18:15;;;;;;;5.60;1.88;;;;;;;11.17;100.00;102435.69;6281833;22;20016;-86
2023/10/04 00:20:43;;;;;;;7.15;1.75;;;;;;;11.16;100.00;102446.75;6279994;22;20020;-86
2023/10/04 00:23:10;;;;;;;3.25;1.30;;;;;;;11.15;100.00;102445.97;6280459;22;20027;-85
2023/10/04 00:25:38;;;;;;;4.45;1.52;;;;;;;11.13;100.00;102444.88;6278940;22;20026;-85
2023/10/04 00:28:05;;;;;;;3.67;1.60;;;;;;;11.12;100.00;102446.03;6280327;22;20012;-85
2023/10/04 00:30:33;;;;;;;3.72;1.70;;;;;;;11.11;100.00;102447.94;6278952;22;20099;-85
2023/10/04 00:33:04;;;;;;;2.67;1.52;;;;;;;11.11;100.00;102455.19;6281144;22;20398;-85
2023/10/04 00:35:31;;;;;;;3.10;1.58;;;;;;;11.09;100.00;102457.50;6279221;22;20020;-86
2023/10/04 00:38:00;;;;;;;4.40;1.85;;;;;;;11.06;100.00;102451.06;6281105;22;20013;-86
2023/10/04 00:40:31;;;;;;;5.78;1.65;;;;;;;11.05;100.00;102460.19;6252375;22;20090;-85
2023/10/04 00:43:01;;;;;;;4.43;1.95;;;;;;;11.03;100.00;102465.94;6279702;22;20024;-85
2023/10/04 00:45:32;;;;;;;4.00;1.80;;;;;;;11.02;100.00;102467.09;6252773;22;20026;-85
2023/10/04 00:48:04;;;;;;;2.63;1.80;;;;;;;11.00;100.00;102461.41;6254472;22;20450;-86
2023/10/04 00:50:32;;;;;;;8.05;2.08;;;;;;;11.00;100.00;102460.63;6280475;22;20488;-85
2023/10/04 00:53:08;;;;;;;8.15;1.60;;;;;;;10.99;100.00;102459.13;6279617;22;20083;-86
2023/10/04 00:55:43;;;;;;;5.13;1.73;;;;;;;10.99;100.00;102461.81;6278572;22;20016;-86
2023/10/04 00:58:12;;;;;;;4.68;1.88;;;;;;;10.98;100.00;102458.38;6279203;22;20457;-86
2023/10/04 01:00:40;;;;;;;3.38;1.80;;;;;;;10.99;100.00;102459.88;6279174;22;20327;-86
2023/10/04 01:03:09;;;;;;;2.63;1.40;;;;;;;10.98;100.00;102461.03;6282293;22;20028;-86
2023/10/04 01:05:40;;;;;;;5.57;2.08;;;;;;;10.98;100.00;102455.72;6289981;22;20094;-86
2023/10/04 01:08:09;;;;;;;5.28;1.65;;;;;;;10.98;100.00;102461.03;6280389;22;20071;-86
2023/10/04 01:10:37;;;;;;;6.72;1.73;;;;;;;10.97;100.00;102466.78;6277845;22;20031;-86
2023/10/04 01:13:09;;;;;;;5.38;1.70;;;;;;;10.98;100.00;102466.38;6279117;22;20020;-86
2023/10/04 01:15:39;;;;;;;3.83;1.80;;;;;;;10.97;100.00;102472.84;6280373;22;20012;-86
2023/10/04 01:18:10;;;;;;;2.72;1.60;;;;;;;10.98;100.00;102473.59;6278575;22;20071;-86
2023/10/04 01:20:38;;;;;;;3.00;1.77;;;;;;;10.99;100.00;102473.22;6278949;22;20485;-86
2023/10/04 01:23:07;;;;;;;4.95;1.83;;;;;;;10.99;100.00;102470.53;6278036;22;20251;-86
2023/10/04 01:25:36;;;;;;;6.70;1.58;;;;;;;10.98;100.00;102473.59;6278231;22;20027;-86
2023/10/04 01:28:07;;;;;;;4.47;1.77;;;;;;;10.98;100.00;102477.03;6280754;22;20019;-86
2023/10/04 01:30:35;;;;;;;6.10;1.95;;;;;;;10.99;100.00;102481.22;6280312;22;20024;-86
2023/10/04 01:33:03;;;;;;;4.88;1.90;;;;;;;10.99;100.00;102483.88;6279292;22;20391;-86
2023/10/04 01:35:30;;;;;;;6.05;1.80;;;;;;;10.99;100.00;102481.22;6278202;22;20043;-86
2023/10/04 01:37:57;;;;;;;3.40;1.58;;;;;;;11.01;100.00;102488.81;6280669;22;20080;-86
2023/10/04 01:40:28;;;;;;;4.05;1.73;;;;;;;11.00;100.00;102482.72;6279400;22;20055;-87
2023/10/04 01:42:59;;;;;;;;;;;;;;;11.03;100.00;102489.91;6279389;22;20012;-85
2023/10/04 01:45:26;;;;;;;3.17;1.63;;;;;;;11.05;100.00;102484.19;6280134;22;19920;-86
2023/10/04 01:47:53;;;;;;;5.95;2.78;;;;;;;11.07;100.00;102489.13;6278921;22;20016;-85
2023/10/04 01:50:19;;;;;;;2.30;1.55;;;;;;;11.09;100.00;102484.16;6276532;22;20020;-86
2023/10/04 01:52:46;;;;;;;4.80;2.08;;;;;;;11.09;100.00;102481.47;6277594;22;20040;-85
2023/10/04 01:55:13;;;;;;;6.05;2.05;;;;;;;11.10;100.00;102480.31;6275828;22;20023;-86
2023/10/04 01:57:41;;;;;;;5.15;1.83;;;;;;;11.09;100.00;102476.91;6278320;22;20020;-87
2023/10/04 02:00:14;;;;;;;4.75;1.77;;;;;;;11.09;100.00;102481.47;6276940;22;20082;-86
2023/10/04 02:02:41;;;;;;;6.53;2.20;;;;;;;11.09;100.00;102476.91;6279631;22;20016;-85
2023/10/04 02:05:10;;;;;;;4.00;1.75;;;;;;;11.11;100.00;102482.59;6281287;22;20040;-85
2023/10/04 02:07:38;;;;;;;7.00;1.73;;;;;;;11.12;100.00;102481.44;6280943;22;20022;-86
2023/10/04 02:10:13;;;;;;;6.85;2.00;;;;;;;11.12;100.00;102480.69;6281863;22;20095;-86
2023/10/04 02:12:43;;;;;;;6.88;1.85;;;;;;;11.13;100.00;102477.63;6279878;22;20016;-86
2023/10/04 02:15:14;;;;;;;5.20;2.17;;;;;;;11.13;100.00;102472.28;6253852;22;20024;-86
2023/10/04 02:17:45;;;;;;;6.07;1.90;;;;;;;11.14;100.00;102478.38;6279802;22;20086;-86
2023/10/04 02:20:21;;;;;;;5.03;1.85;;;;;;;11.14;100.00;102475.69;6254503;22;20024;-86
2023/10/04 02:22:48;;;;;;;5.45;1.80;;;;;;;11.14;100.00;102476.47;6253892;22;20461;-87
2023/10/04 02:25:15;;;;;;;7.47;3.45;;;;;;;11.15;100.00;102469.97;6280257;22;20024;-87
2023/10/04 02:27:43;;;;;;;4.80;1.70;;;;;;;11.15;100.00;102477.22;6280142;22;20082;-86
2023/10/04 02:30:16;;;;;;;4.55;2.13;;;;;;;11.15;100.00;102477.22;6279636;22;20052;-86
2023/10/04 02:32:43;;;;;;;6.97;1.67;;;;;;;11.15;100.00;102477.97;6279886;22;20054;-85
2023/10/04 02:35:19;;;;;;;6.13;1.75;;;;;;;11.16;100.00;102484.06;6279778;22;20070;-87
2023/10/04 02:37:47;;;;;;;5.47;1.80;;;;;;;11.15;100.00;102482.53;6253927;22;20039;-87
2023/10/04 02:40:14;;;;;;;5.35;2.03;;;;;;;11.15;100.00;102483.31;6279649;22;20028;-87
2023/10/04 02:42:44;;;;;;;4.40;1.88;;;;;;;11.15;100.00;102485.22;6281708;22;20071;-86
2023/10/04 02:45:18;;;;;;;5.82;2.50;;;;;;;11.15;100.00;102488.63;6255628;22;20025;-86
2023/10/04 02:47:49;;;;;;;7.22;1.92;;;;;;;11.15;100.00;102493.97;6282107;22;20019;-87
2023/10/04 02:50:17;;;;;;;2.53;1.90;;;;;;;11.15;100.00;102490.53;6254172;22;20126;-86
2023/10/04 02:52:45;;;;;;;6.13;2.20;;;;;;;11.14;100.00;102497.03;6281204;22;20729;-85
2023/10/04 02:55:16;;;;;;;6.25;2.30;;;;;;;11.15;100.00;102495.88;6279057;22;20043;-86
2023/10/04 02:57:51;;;;;;;8.60;2.17;;;;;;;11.14;100.00;102500.44;6254433;22;20418;-86
2023/10/04 03:00:20;;;;;;;6.28;2.05;;;;;;;11.10;100.00;102489.06;6279767;22;20059;-85
2023/10/04 03:02:53;;;;;;;4.95;2.08;;;;;;;11.10;100.00;102494.41;6255488;22;20402;-85
2023/10/04 03:05:28;;;;;;;;;;;;;;;11.11;100.00;102503.16;6280672;22;20074;-87
2023/10/04 03:07:56;;;;;;;7.30;2.08;;;;;;;11.11;100.00;102503.16;6280234;22;19920;-86
2023/10/04 03:10:24;;;;;;;3.97;2.28;;;;;;;11.09;100.00;102500.88;6279000;22;20020;-86
2023/10/04 03:13:01;;;;;;;3.78;1.90;;;;;;;11.07;100.00;102503.19;6255118;22;20023;-87
2023/10/04 03:15:30;;;;;;;7.75;2.00;;;;;;;11.06;100.00;102507.00;6279072;22;20402;-86
2023/10/04 03:17:59;;;;;;;9.07;2.50;;;;;;;11.05;100.00;102513.50;6280148;22;20012;-87
2023/10/04 03:20:30;;;;;;;3.38;2.08;;;;;;;11.02;100.00;102507.06;6278665;22;20413;-87
2023/10/04 03:23:00;;;;;;;8.63;2.15;;;;;;;11.03;100.00;102497.16;6254669;22;20480;-87
2023/10/04 03:25:28;;;;;;;6.60;2.17;;;;;;;11.03;100.00;102507.81;6278606;22;20505;-86
2023/10/04 03:27:57;;;;;;;8.57;2.10;;;;;;;11.00;100.00;102503.28;6281005;22;20016;-86
2023/10/04 03:30:24;;;;;;;7.38;2.38;;;;;;;11.02;100.00;102508.97;6278403;22;20405;-86
2023/10/04 03:32:53;;;;;;;9.15;2.15;;;;;;;11.01;100.00;102499.47;6279776;22;20831;-86
2023/10/04 03:35:26;;;;;;;8.70;2.40;;;;;;;11.01;100.00;102502.13;6278181;22;20020;-86
2023/10/04 03:37:58;;;;;;;7.78;2.50;;;;;;;10.99;100.00;102504.44;6279723;22;20540;-86
2023/10/04 03:40:38;;;;;;;5.05;1.98;;;;;;;10.99;100.00;102512.44;6278905;22;20031;-86
2023/10/04 03:43:12;;;;;;;5.18;2.35;;;;;;;10.97;100.00;102515.50;6255109;22;20462;-86
2023/10/04 03:45:41;;;;;;;5.53;1.98;;;;;;;10.96;100.00;102508.66;6278904;22;20417;-86
2023/10/04 03:48:15;;;;;;;6.50;2.05;;;;;;;10.94;100.00;102510.97;6279125;22;20016;-86
2023/10/04 03:50:48;;;;;;;9.07;2.15;;;;;;;10.95;100.00;102509.03;6279130;22;20048;-86
2023/10/04 03:53:16;;;;;;;7.43;2.30;;;;;;;10.96;100.00;102510.56;6279067;22;20016;-86
2023/10/04 03:55:43;;;;;;;5.47;2.22;;;;;;;10.98;100.00;102513.59;6279475;22;20016;-86
2023/10/04 03:58:11;;;;;;;5.30;2.00;;;;;;;10.99;100.00;102512.44;6279067;22;20021;-86
2023/10/04 04:00:39;;;;;;;7.88;2.38;;;;;;;10.99;100.00;102515.09;6278995;22;20024;-86
2023/10/04 04:03:06;;;;;;;5.93;2.30;;;;;;;10.96;100.00;102521.97;6279439;22;20020;-86
2023/10/04 04:05:40;;;;;;;4.40;2.08;;;;;;;10.95;100.00;102520.47;6280365;22;20020;-87
2023/10/04 04:08:08;;;;;;;5.57;2.22;;;;;;;10.92;100.00;102526.59;6280945;22;20475;-86
2023/10/04 04:10:38;;;;;;;5.78;2.10;;;;;;;10.91;100.00;102519.00;6280955;22;20023;-85
2023/10/04 04:13:06;;;;;;;5.20;2.35;;;;;;;10.90;100.00;102515.56;6279305;22;20020;-84
2023/10/04 04:15:34;;;;;;;1.80;1.67;;;;;;;10.88;100.00;102506.47;6278692;22;20487;-86
2023/10/04 04:18:06;;;;;;;7.40;2.15;;;;;;;10.88;100.00;102506.47;6254118;22;20409;-87
2023/10/04 04:20:35;;;;;;;3.50;2.20;;;;;;;10.84;100.00;102506.50;6279313;22;20016;-87
2023/10/04 04:23:04;;;;;;;4.83;2.50;;;;;;;10.85;100.00;102493.94;6279963;22;20071;-86
2023/10/04 04:25:32;;;;;;;7.68;2.33;;;;;;;10.84;100.00;102485.19;6279293;22;20458;-86
2023/10/04 04:28:02;;;;;;;6.43;2.17;;;;;;;10.84;100.00;102484.44;6279576;22;20024;-86
2023/10/04 04:30:35;;;;;;;7.70;2.38;;;;;;;10.83;100.00;102486.34;6279101;22;20048;-86
2023/10/04 04:33:07;;;;;;;4.13;2.45;;;;;;;10.83;100.00;102494.34;6253747;22;20078;-86
2023/10/04 04:38:17;;;;;;;6.35;2.45;;;;;;;10.82;100.00;102482.16;6279061;22;20023;-86
2023/10/04 04:40:46;;;;;;;5.70;2.25;;;;;;;10.84;100.00;102482.53;6280918;22;20020;-85
2023/10/04 04:43:26;;;;;;;5.13;2.40;;;;;;;10.83;100.00;102482.91;6278570;22;20020;-86
2023/10/04 04:45:56;;;;;;;7.30;2.75;;;;;;;10.83;100.00;102493.56;6279642;22;20027;-86
2023/10/04 04:48:35;;;;;;;11.88;2.70;;;;;;;10.83;100.00;102496.25;6278359;22;20016;-86
2023/10/04 04:53:56;;;;;;;6.53;2.45;;;;;;;10.82;100.00;102506.13;6279342;22;20027;-85
2023/10/04 04:56:25;;;;;;;6.43;2.40;;;;;;;10.82;100.00;102508.81;6278357;22;20023;-85
2023/10/04 04:58:56;;;;;;;5.30;2.50;;;;;;;10.80;100.00;102521.75;6279601;22;20016;-85
2023/10/04 05:01:27;;;;;;;8.32;2.20;;;;;;;10.81;100.00;102520.63;6279899;22;20004;-85
2023/10/04 05:03:53;;;;;;;10.43;2.85;;;;;;;10.81;100.00;102533.94;6279525;22;20055;-85
2023/10/04 05:06:22;;;;;;;6.63;2.97;;;;;;;10.82;100.00;102530.13;6280280;22;20087;-85
2023/10/04 05:08:56;;;;;;;10.52;2.60;;;;;;;10.84;100.00;102532.38;6282741;22;20016;-85
2023/10/04 05:11:24;;;;;;;4.72;2.30;;;;;;;10.84;100.00;102530.47;6281559;22;20354;-85
2023/10/04 05:13:51;;;;;;;8.27;2.97;;;;;;;10.83;100.00;102526.31;6281994;22;20020;-85
2023/10/04 05:16:18;;;;;;;6.82;2.25;;;;;;;10.83;100.00;102522.88;6280912;22;20066;-85
2023/10/04 05:18:45;;;;;;;9.85;2.30;;;;;;;10.82;100.00;102522.13;6280645;22;20031;-85
2023/10/04 05:21:12;;;;;;;7.50;2.70;;;;;;;10.82;100.00;102535.44;6278873;22;20020;-85
2023/10/04 05:23:39;;;;;;;11.75;3.00;;;;;;;10.82;100.00;102540.03;6279862;22;20016;-85
2023/10/04 05:26:08;;;;;;;8.70;3.08;;;;;;;10.80;100.00;102537.75;6280849;22;20012;-85
2023/10/04 05:28:35;;;;;;;6.70;3.17;;;;;;;10.81;100.00;102543.84;6280297;22;20019;-86
2023/10/04 05:31:02;;;;;;;7.47;2.80;;;;;;;10.81;100.00;102549.16;6280020;22;20074;-85
2023/10/04 05:33:30;;;;;;;8.00;2.72;;;;;;;10.80;100.00;102563.63;6279965;22;20070;-85
2023/10/04 05:36:00;;;;;;;6.85;2.63;;;;;;;10.80;100.00;102567.06;6281232;22;20020;-85
2023/10/04 05:38:28;;;;;;;8.10;2.72;;;;;;;10.80;100.00;102568.97;6253966;22;20020;-86
2023/10/04 05:40:55;;;;;;;4.38;3.00;;;;;;;10.79;100.00;102570.13;6281940;22;20021;-86
2023/10/04 05:43:22;;;;;;;6.40;2.65;;;;;;;10.78;100.00;102560.63;6279711;22;20477;-87
2023/10/04 05:45:51;;;;;;;6.78;2.78;;;;;;;10.78;100.00;102552.66;6279979;22;20048;-86
2023/10/04 05:48:19;;;;;;;3.70;2.42;;;;;;;10.79;100.00;102560.25;6280094;22;20059;-87
2023/10/04 05:50:50;;;;;;;10.70;2.88;;;;;;;10.82;100.00;102566.66;6280036;22;20024;-86
2023/10/04 05:53:21;;;;;;;9.35;2.90;;;;;;;10.84;100.00;102564.34;6254355;22;20020;-85
2023/10/04 05:55:48;;;;;;;5.05;3.15;;;;;;;10.89;100.00;102558.59;6282067;22;20095;-87
2023/10/04 05:58:17;;;;;;;8.65;3.13;;;;;;;10.93;100.00;102559.31;6279538;22;20020;-83
2023/10/04 06:00:51;;;;;;;6.40;3.25;;;;;;;10.97;100.00;102563.47;6280723;22;20023;-80
2023/10/04 06:03:19;;;;;;;7.22;2.88;;;;;;;11.02;100.00;102563.03;6281025;22;20083;-81
2023/10/04 06:05:46;;;;;;;11.50;3.00;;;;;;;11.05;100.00;102566.81;6282075;22;20390;-82
2023/10/04 06:08:21;;;;;;;7.38;3.22;;;;;;;11.09;100.00;102577.44;6279928;22;20078;-80
2023/10/04 06:10:51;;;;;;;11.10;2.90;;;;;;;11.12;100.00;102579.28;6279891;22;20012;-81
2023/10/04 06:13:22;;;;;;;9.10;3.22;;;;;;;11.13;100.00;102586.13;6281055;22;20103;-81
2023/10/04 06:15:50;;;;;;;6.45;2.90;;;;;;;11.15;100.00;102575.84;6279232;22;20103;-87
2023/10/04 06:18:17;;;;;;;7.78;3.05;;;;;;;11.16;100.00;102588.78;6279457;22;20016;-80
2023/10/04 06:20:45;;;;;;;6.80;2.80;;;;;;;11.17;100.00;102594.84;6281295;22;20450;-80
2023/10/04 06:23:14;;;;;;;11.95;2.90;;;;;;;11.18;100.00;102597.13;6253555;22;20358;-81
2023/10/04 06:25:44;;;;;;;5.80;3.35;;;;;;;11.20;100.00;102596.69;6278827;22;20020;-83
2023/10/04 06:28:11;;;;;;;7.60;2.88;;;;;;;11.21;100.00;102598.97;6281000;22;20048;-78
2023/10/04 06:30:39;;;;;;;12.65;3.72;;;;;;;11.24;100.00;102598.16;6280582;22;20093;-84
2023/10/04 06:33:08;;;;;;;9.45;3.30;;;;;;;11.27;100.00;102602.72;6281269;22;20454;-91
2023/10/04 06:35:34;;;;;;;10.85;2.97;;;;;;;11.30;100.00;102593.16;6286047;22;20031;-94
2023/10/04 06:38:04;;;;;;;9.30;3.40;;;;;;;11.31;100.00;102597.34;6257682;22;20018;-92
2023/10/04 06:40:34;;;;;;;7.88;3.42;;;;;;;11.35;100.00;102603.38;6283478;22;20023;-90
2023/10/04 06:43:06;;;;;;;7.72;3.35;;;;;;;11.44;100.00;102610.91;6254890;22;20024;-88
2023/10/04 06:45:35;;;;;;;8.48;3.60;;;;;;;11.50;100.00;102604.72;6282313;22;20439;-88
2023/10/04 06:48:04;;;;;;;9.18;2.80;;;;;;;11.51;100.00;102605.50;6281376;22;20023;-87
2023/10/04 06:50:42;;;;;;;6.68;3.17;;;;;;;11.57;100.00;102609.97;6281717;22;20020;-92
2023/10/04 06:53:09;;;;;;;8.27;3.88;;;;;;;11.64;100.00;102607.19;6281944;22;20022;-87
2023/10/04 06:55:37;;;;;;;11.20;3.55;;;;;;;11.70;100.00;102605.59;6281811;22;20012;-84
2023/10/04 06:58:05;;;;;;;13.10;3.40;;;;;;;11.78;100.00;102616.22;6280842;22;20023;-81
2023/10/04 07:00:36;;;;;;;13.60;3.30;;;;;;;11.84;100.00;102617.28;6280740;22;20020;-83
2023/10/04 07:03:04;;;;;;;9.90;3.40;;;;;;;11.91;100.00;102623.28;6281599;22;20012;-83
2023/10/04 07:05:36;;;;;;;8.88;3.05;;;;;;;11.98;100.00;102617.09;6281062;22;20038;-84
2023/10/04 07:08:05;;;;;;;12.02;3.33;;;;;;;12.08;100.00;102623.41;6281293;22;20035;-85
2023/10/04 07:10:33;;;;;;;9.38;3.20;;;;;;;12.21;100.00;102625.13;6281426;22;20031;-86
2023/10/04 07:13:01;;;;;;;13.02;3.67;;;;;;;12.29;100.00;102629.19;6279212;22;20376;-85
2023/10/04 07:15:34;;;;;;;9.85;3.40;;;;;;;12.36;100.00;102620.31;6280669;22;20018;-86
2023/10/04 07:18:06;;;;;;;9.00;3.25;;;;;;;12.43;100.00;102630.88;6281795;22;20012;-87
2023/10/04 07:20:34;;;;;;;9.90;3.70;;;;;;;12.48;100.00;102632.31;6279664;22;20016;-87
2023/10/04 07:23:05;;;;;;;8.20;3.80;;;;;;;12.53;100.00;102631.84;6281201;22;20012;-84
2023/10/04 07:25:37;;;;;;;16.25;3.35;;;;;;;12.62;100.00;102637.44;6281867;22;20047;-86
2023/10/04 07:28:08;;;;;;;12.15;3.97;;;;;;;12.68;100.00;102633.91;6281002;22;20020;-87
2023/10/04 07:30:37;;;;;;;9.85;3.33;;;;;;;12.70;100.00;102630.81;6279599;22;20051;-86
2023/10/04 07:33:04;;;;;;;6.97;3.45;;;;;;;12.80;100.00;102631.78;6281446;22;20016;-86
2023/10/04 07:35:33;;;;;;;12.27;3.50;;;;;;;12.93;100.00;102625.44;6281110;22;20044;-87
2023/10/04 07:37:59;;;;;;;9.10;3.42;;;;;;;13.04;100.00;102625.22;6281576;22;20012;-86
2023/10/04 07:40:30;;;;;;;8.82;3.65;;;;;;;13.09;100.00;102637.38;6278777;22;20020;-87
2023/10/04 07:42:57;;;;;;;9.32;3.42;;;;;;;13.19;100.00;102642.56;6281101;22;20022;-87
2023/10/04 07:45:25;;;;;;;11.02;3.45;;;;;;;13.30;100.00;102631.63;6280946;22;20453;-86
2023/10/04 07:47:52;;;;;;;15.52;3.90;;;;;;;13.36;100.00;102640.69;6282049;22;20439;-87
2023/10/04 07:50:23;;;;;;;12.20;3.25;;;;;;;13.46;100.00;102652.34;6281322;22;20024;-88
2023/10/04 07:52:51;;;;;;;12.30;3.80;;;;;;;13.54;100.00;102661.75;6280556;22;20406;-89
2023/10/04 07:55:18;;;;;;;12.48;3.60;;;;;;;13.57;100.00;102653.66;6281330;22;20012;-89
2023/10/04 07:57:46;;;;;;;7.47;3.70;;;;;;;13.63;100.00;102657.31;6280891;22;20019;-88
2023/10/04 08:00:14;;;;;;;11.82;3.50;;;;;;;13.68;100.00;102656.84;6278031;22;20024;-89
2023/10/04 08:02:48;;;;;;;10.05;3.20;;;;;;;13.74;100.00;102656.34;6281372;22;20499;-89
2023/10/04 08:05:20;;;;;;;7.47;3.20;;;;;;;13.81;100.00;102656.19;6281216;22;20525;-88
2023/10/04 08:07:48;;;;;;;12.88;3.42;;;;;;;13.87;100.00;102654.53;6281643;22;20019;-88
2023/10/04 08:10:23;;;;;;;9.18;3.90;;;;;;;13.98;100.00;102666.53;6280299;22;20504;-89
2023/10/04 08:12:53;;;;;;;7.25;3.40;;;;;;;14.06;100.00;102663.69;6281887;22;20016;-88
2023/10/04 08:15:27;;;;;;;7.20;3.20;;;;;;;14.06;100.00;102661.75;6280181;22;20012;-88
2023/10/04 08:17:55;;;;;;;12.73;3.70;;;;;;;14.12;100.00;102670.03;6280991;22;20012;-89
2023/10/04 08:20:29;;;;;;;20.38;3.53;;;;;;;14.22;100.00;102666.38;6280418;22;20401;-88
2023/10/04 08:22:57;;;;;;;16.52;3.90;;;;;;;14.33;100.00;102674.94;6280957;22;20019;-89
2023/10/04 08:25:27;;;;;;;13.77;3.50;;;;;;;14.43;100.00;102681.97;6278101;22;20075;-87
2023/10/04 08:27:55;;;;;;;7.10;3.35;;;;;;;14.53;100.00;102682.91;6280689;22;20012;-88
2023/10/04 08:30:22;;;;;;;11.60;3.83;;;;;;;14.60;100.00;102688.09;6279964;22;20020;-89
2023/10/04 08:32:50;;;;;;;13.68;3.78;;;;;;;14.57;100.00;102678.22;6280935;22;20019;-89
2023/10/04 08:35:21;;;;;;;13.40;3.60;;;;;;;14.63;100.00;102682.66;6280798;22;20017;-86
2023/10/04 08:37:49;;;;;;;9.18;3.88;;;;;;;14.76;100.00;102676.59;6279440;22;20012;-88
2023/10/04 08:40:18;;;;;;;10.40;3.38;;;;;;;14.85;100.00;102679.41;6279761;22;20023;-85
2023/10/04 08:42:48;;;;;;;11.25;3.88;;;;;;;14.96;100.00;102677.97;6280898;22;20088;-88
2023/10/04 08:45:15;;;;;;;9.05;3.80;;;;;;;14.95;100.00;102681.84;6278175;22;20042;-88
2023/10/04 08:47:47;;;;;;;15.30;3.72;;;;;;;14.95;100.00;102676.47;6280200;22;20019;-87
2023/10/04 08:50:22;;;;;;;12.98;3.40;;;;;;;15.10;100.00;102684.16;6280404;22;20020;-86
2023/10/04 08:52:59;;;;;;;9.55;3.60;;;;;;;15.26;99.73;102673.34;6280639;22;20047;-87
2023/10/04 08:55:29;;;;;;;11.65;3.42;;;;;;;15.33;99.99;102679.28;6279304;22;20012;-88
2023/10/04 08:57:56;;;;;;;9.73;3.47;;;;;;;15.41;98.91;102677.16;6278950;22;20016;-87
2023/10/04 09:00:29;;;;;;;17.50;4.28;;;;;;;15.52;98.80;102680.31;6277861;22;20024;-86
2023/10/04 09:02:59;;;;;;;10.88;3.95;;;;;;;15.53;97.24;102678.38;6280565;22;20435;-83
2023/10/04 09:05:28;;;;;;;10.82;3.50;;;;;;;15.57;97.40;102677.13;6279518;22;20055;-84
2023/10/04 09:07:56;;;;;;;10.40;3.72;;;;;;;15.66;96.39;102666.47;6279755;22;20019;-80
2023/10/04 09:10:24;;;;;;;10.82;3.70;;;;;;;15.76;96.38;102669.28;6279062;22;20102;-79
2023/10/04 09:12:51;;;;;;;11.88;4.03;;;;;;;15.86;96.23;102660.16;6280381;22;20055;-79
2023/10/04 09:15:25;;;;;;;7.50;3.58;;;;;;;15.92;95.45;102661.91;6279176;22;20026;-78
2023/10/04 09:18:01;;;;;;;9.45;4.05;;;;;;;15.97;94.86;102661.34;6279901;22;20016;-81
2023/10/04 09:20:31;;;;;;;9.68;3.13;;;;;;;15.98;95.36;102662.09;6279554;22;20026;-78
2023/10/04 09:22:59;;;;;;;11.93;3.57;;;;;;;15.95;93.93;102649.53;6278235;22;20020;-83
2023/10/04 09:25:36;;;;;;;9.95;4.47;;;;;;;15.92;93.56;102653.09;6278232;22;20030;-85
2023/10/04 09:28:04;;;;;;;12.48;3.67;;;;;;;15.92;93.48;102653.09;6281565;22;20044;-84
2023/10/04 09:30:36;;;;;;;10.00;3.60;;;;;;;15.93;94.20;102651.91;6284028;22;20016;-86
2023/10/04 09:33:07;;;;;;;9.25;3.58;;;;;;;15.96;94.12;102649.09;6280463;22;20040;-86
2023/10/04 09:35:44;;;;;;;8.38;3.30;;;;;;;16.01;93.99;102658.53;6280138;22;20012;-84
2023/10/04 09:38:16;;;;;;;8.07;3.47;;;;;;;16.04;93.46;102664.97;6279142;22;20012;-85
2023/10/04 09:40:53;;;;;;;10.40;3.67;;;;;;;16.07;93.05;102656.06;6280074;22;20024;-86
2023/10/04 09:43:37;;;;;;;12.10;3.70;;;;;;;16.16;93.61;102658.84;6279377;22;20019;-86
2023/10/04 09:46:09;;;;;;;8.70;3.80;;;;;;;16.20;92.47;102662.94;6280060;22;20020;-83
2023/10/04 09:48:41;;;;;;;10.13;3.72;;;;;;;16.17;91.95;102652.31;6279856;22;20496;-81
2023/10/04 09:51:09;;;;;;;15.40;3.92;;;;;;;16.14;91.89;102656.59;6279740;22;20020;-81
2023/10/04 09:53:41;;;;;;;7.60;4.07;;;;;;;16.17;92.49;102661.13;6279390;22;20070;-85
2023/10/04 09:56:12;;;;;;;13.52;3.80;;;;;;;16.13;91.30;102663.16;6279744;22;20087;-84
2023/10/04 09:58:48;;;;;;;10.65;4.57;;;;;;;16.18;92.34;102676.06;6279903;22;20177;-82
2023/10/04 10:01:19;;;;;;;14.23;3.83;;;;;;;16.12;90.68;102675.09;6279896;22;20016;-84
2023/10/04 10:03:56;;;;;;;15.57;4.37;;;;;;;16.06;91.65;102674.13;6280133;22;20412;-80
2023/10/04 10:06:26;;;;;;;11.05;4.15;;;;;;;16.04;92.78;102687.22;6279106;22;20800;-84
2023/10/04 10:09:02;;;;;;;9.05;4.13;;;;;;;15.97;92.47;102690.16;6278306;22;20080;-80
2023/10/04 10:11:32;;;;;;;13.15;4.32;;;;;;;15.95;92.34;102685.22;6279235;22;20498;-81
2023/10/04 10:14:02;;;;;;;13.18;4.10;;;;;;;15.99;92.49;102682.41;6277792;22;20386;-81
2023/10/04 10:16:30;;;;;;;13.13;4.57;;;;;;;16.00;91.36;102668.53;6279183;22;20012;-82
2023/10/04 10:18:57;;;;;;;11.65;4.28;;;;;;;16.02;91.12;102668.09;6279684;22;20020;-84
2023/10/04 10:22:02;;;;;;;12.10;3.92;;;;;;;16.14;91.92;102664.66;6278303;22;20461;-84
2023/10/04 10:24:29;;;;;;;16.67;5.32;;;;;;;16.17;91.06;102665.72;6280646;22;20926;-83
2023/10/04 10:27:08;;;;;;;17.25;4.82;;;;;;;16.21;91.17;102661.00;6281342;22;20468;-82
2023/10/04 10:29:38;;;;;;;12.45;3.80;;;;;;;16.27;90.62;102657.34;6281000;22;20040;-84
2023/10/04 10:32:25;;;;;;;10.88;4.45;;;;;;;16.33;90.40;102662.94;6281226;22;20016;-82
2023/10/04 10:35:05;;;;;;;12.68;4.53;;;;;;;16.47;90.47;102661.69;6278993;22;20052;-82
2023/10/04 10:37:38;;;;;;;8.95;4.03;;;;;;;16.57;89.46;102663.28;6280855;22;20012;-84
2023/10/04 10:40:09;;;;;;;11.00;3.95;;;;;;;16.57;88.90;102658.66;6281086;22;20421;-83
2023/10/04 10:43:07;;;;;;;12.83;4.07;;;;;;;16.65;89.78;102664.59;6279530;22;20027;-79
2023/10/04 10:45:34;;;;;;;10.63;3.55;;;;;;;16.65;87.45;102664.59;6279442;22;20027;-88
2023/10/04 10:48:06;;;;;;;11.07;3.72;;;;;;;16.75;86.44;102657.38;6279591;22;20022;-87
2023/10/04 10:50:34;;;;;;;12.25;4.07;;;;;;;16.87;87.43;102653.84;6280379;22;20398;-84
2023/10/04 10:53:06;;;;;;;8.65;4.25;;;;;;;17.03;86.84;102651.00;6279665;22;20024;-82
2023/10/04 10:55:33;;;;;;;14.77;3.83;;;;;;;17.13;84.66;102644.50;6278783;22;20103;-84
2023/10/04 10:57:59;;;;;;;9.23;3.65;;;;;;;17.13;82.89;102652.56;6281101;22;20012;-82
2023/10/04 11:00:32;;;;;;;8.85;3.83;;;;;;;17.14;82.98;102640.59;6280412;22;20016;-80
2023/10/04 11:02:59;;;;;;;8.70;3.47;;;;;;;17.17;83.46;102652.44;6254091;22;20144;-81
2023/10/04 11:05:27;;;;;;;8.30;3.80;;;;;;;17.14;83.96;102647.94;6279702;22;20099;-81
2023/10/04 11:07:54;;;;;;;9.68;3.55;;;;;;;17.11;83.54;102643.41;6280940;22;20485;-82
2023/10/04 11:10:24;;;;;;;9.88;3.75;;;;;;;17.13;85.25;102651.81;6280574;22;20067;-81
2023/10/04 11:12:55;;;;;;;8.32;4.15;;;;;;;17.09;83.71;102641.16;6281095;22;20091;-81
2023/10/04 11:15:26;;;;;;;9.88;4.00;;;;;;;17.02;83.25;102640.66;6281013;22;20418;-82
2023/10/04 11:17:54;;;;;;;10.05;4.03;;;;;;;16.88;83.50;102641.91;6280115;22;20039;-86
2023/10/04 11:20:21;;;;;;;11.93;3.63;;;;;;;16.79;84.08;102634.53;6278292;22;20040;-81
2023/10/04 11:22:49;;;;;;;12.20;4.22;;;;;;;16.66;83.74;102636.53;6281163;22;20027;-83
2023/10/04 11:25:17;;;;;;;8.35;4.00;;;;;;;16.59;84.60;102631.34;6280868;22;20016;-86
2023/10/04 11:27:50;;;;;;;10.55;3.67;;;;;;;16.53;84.97;102638.47;6280160;22;20454;-85
2023/10/04 11:30:18;;;;;;;8.77;3.80;;;;;;;16.50;84.70;102634.69;6281917;22;20012;-86
2023/10/04 11:32:46;;;;;;;12.73;3.80;;;;;;;16.52;84.00;102632.34;6282378;22;20420;-87
2023/10/04 11:35:18;;;;;;;10.05;3.70;;;;;;;16.52;83.42;102621.56;6280893;22;20024;-86